Time;durP1;ratioP1;P1;durP2;ratioP2;P2;SDS_P1;SDS_P2;PMS_P1;PMS_P2;Temp;Humidity;BMP_temperature;BMP_pressure;BME280_temperature;BME280_humidity;BME280_pressure;Samples;Min_cycle;Max_cycle;Signal;HPM_P1;HPM_P2
2023/05/06 00:00:04;;;;;;;12.35;6.05;;;;;;;17.36;56.40;98169.47;4440541;32;20128;-79
2023/05/06 00:02:31;;;;;;;11.32;5.87;;;;;;;17.14;57.74;98166.66;4440988;32;20499;-79
2023/05/06 00:04:58;;;;;;;13.60;6.10;;;;;;;16.68;59.62;98162.72;4427161;32;20104;-80
2023/05/06 00:07:25;;;;;;;15.07;5.57;;;;;;;16.76;60.00;98170.88;4440647;32;20119;-79
2023/05/06 00:09:52;;;;;;;13.77;6.57;;;;;;;17.17;58.95;98171.66;4440942;32;20097;-79
2023/05/06 00:12:19;;;;;;;12.35;6.18;;;;;;;16.87;60.09;98170.16;4440831;32;20105;-80
2023/05/06 00:14:46;;;;;;;13.27;6.65;;;;;;;16.28;62.44;98158.41;4440610;32;20085;-79
2023/05/06 00:17:13;;;;;;;13.75;6.50;;;;;;;17.08;59.65;98157.47;4440964;32;20143;-80
2023/05/06 00:19:39;;;;;;;14.98;6.18;;;;;;;16.87;60.50;98151.06;4440828;32;20107;-80
2023/05/06 00:22:06;;;;;;;12.85;6.53;;;;;;;17.04;60.55;98142.97;4440363;32;20453;-79
2023/05/06 00:24:33;;;;;;;16.12;7.12;;;;;;;17.04;61.19;98148.19;4439887;32;20090;-79
2023/05/06 00:27:00;;;;;;;14.10;6.50;;;;;;;17.56;59.00;98142.03;4426886;32;20081;-79
2023/05/06 00:29:28;;;;;;;15.30;7.20;;;;;;;17.26;59.93;98144.97;4440292;32;20120;-79
2023/05/06 00:31:55;;;;;;;14.75;7.15;;;;;;;16.66;62.11;98150.69;4440892;32;20086;-79
2023/05/06 00:34:22;;;;;;;15.57;7.50;;;;;;;17.29;60.14;98150.78;4440484;32;20188;-79
2023/05/06 00:36:48;;;;;;;13.90;6.12;;;;;;;17.44;58.92;98148.94;4440747;32;20086;-80
2023/05/06 00:39:15;;;;;;;13.70;6.40;;;;;;;17.50;56.51;98151.09;4440661;32;20123;-80
2023/05/06 00:41:42;;;;;;;15.25;7.25;;;;;;;16.60;59.10;98143.31;4440424;32;20098;-79
2023/05/06 00:44:09;;;;;;;19.23;7.22;;;;;;;16.42;60.02;98146.16;4440481;32;20108;-79
2023/05/06 00:46:36;;;;;;;14.25;6.50;;;;;;;16.70;59.16;98145.22;4440727;32;20085;-80
2023/05/06 00:49:03;;;;;;;14.40;6.28;;;;;;;16.88;58.05;98137.09;4440288;32;20163;-79
2023/05/06 00:51:31;;;;;;;13.05;6.65;;;;;;;16.83;58.19;98136.59;4426953;32;20106;-79
2023/05/06 00:53:57;;;;;;;14.13;6.65;;;;;;;16.36;60.61;98127.47;4440637;32;20094;-80
2023/05/06 00:56:24;;;;;;;16.58;6.60;;;;;;;16.64;60.18;98126.53;4426443;32;20077;-80
2023/05/06 00:58:52;;;;;;;15.35;7.35;;;;;;;16.44;61.73;98130.44;4440629;32;20147;-80
2023/05/06 01:01:21;;;;;;;15.75;7.00;;;;;;;16.93;60.31;98133.28;4426756;32;20123;-80
2023/05/06 01:03:48;;;;;;;13.13;6.80;;;;;;;17.34;59.05;98122.62;4440113;32;20090;-79
2023/05/06 01:06:34;;;;;;;15.32;6.68;;;;;;;17.44;57.30;98121.97;4440548;32;20077;-80
2023/05/06 01:09:20;;;;;;;11.80;5.75;;;;;;;16.97;59.37;98124.28;4440560;32;20097;-80
2023/05/06 01:11:58;;;;;;;12.65;6.40;;;;;;;16.89;58.67;98131.78;4426632;32;20113;-80
2023/05/06 01:14:53;;;;;;;12.37;6.05;;;;;;;16.78;58.51;98132.50;4426771;32;20101;-80
2023/05/06 01:17:23;;;;;;;12.93;6.78;;;;;;;16.48;60.12;98132.75;4432619;32;20100;-79
2023/05/06 01:19:54;;;;;;;13.60;6.12;;;;;;;16.93;57.77;98130.66;4440364;32;20093;-79
2023/05/06 01:22:22;;;;;;;13.10;6.55;;;;;;;16.81;57.74;98130.66;4440385;32;20119;-80
2023/05/06 01:24:49;;;;;;;14.10;6.65;;;;;;;16.46;59.42;98132.00;4439942;32;20090;-79
2023/05/06 01:27:17;;;;;;;12.35;6.40;;;;;;;16.95;58.07;98138.38;4440373;32;20515;-80
2023/05/06 01:29:45;;;;;;;13.02;6.57;;;;;;;17.30;55.58;98130.75;4440310;32;20093;-80
2023/05/06 01:32:18;;;;;;;12.63;6.32;;;;;;;16.69;58.41;98130.53;4425959;32;20150;-79
2023/05/06 01:35:20;;;;;;;13.68;5.78;;;;;;;16.87;57.67;98128.47;4440112;32;20104;-80
2023/05/06 01:38:33;;;;;;;15.25;6.18;;;;;;;16.96;56.42;98135.66;4426098;32;20093;-79
2023/05/06 01:41:00;;;;;;;12.15;5.62;;;;;;;16.26;58.83;98135.03;4437233;32;20097;-80
2023/05/06 01:43:31;;;;;;;12.23;5.72;;;;;;;16.73;57.15;98137.19;4439554;32;20105;-80
2023/05/06 01:45:59;;;;;;;11.55;5.80;;;;;;;16.38;57.51;98136.88;4439858;32;20088;-80
2023/05/06 01:48:29;;;;;;;14.25;6.18;;;;;;;17.39;53.65;98130.12;4413520;32;20164;-80
2023/05/06 01:50:56;;;;;;;11.15;5.90;;;;;;;16.75;56.48;98131.88;4440074;32;20338;-80
2023/05/06 01:53:23;;;;;;;17.37;6.95;;;;;;;16.31;58.21;98135.59;4439601;32;20093;-79
2023/05/06 01:55:50;;;;;;;14.85;5.78;;;;;;;16.67;57.62;98134.13;4439995;32;20104;-80
2023/05/06 01:58:16;;;;;;;13.05;6.10;;;;;;;16.62;57.83;98131.84;4439851;32;20104;-80
2023/05/06 02:00:43;;;;;;;12.48;6.07;;;;;;;16.17;59.60;98135.66;4439545;32;20097;-79
2023/05/06 02:03:11;;;;;;;14.85;6.47;;;;;;;16.09;60.44;98140.50;4426033;32;20097;-80
2023/05/06 02:05:38;;;;;;;14.02;6.78;;;;;;;16.13;60.34;98132.41;4439506;32;20104;-79
2023/05/06 02:08:05;;;;;;;12.07;6.18;;;;;;;16.04;60.56;98132.16;4439840;32;20132;-80
2023/05/06 02:10:32;;;;;;;11.65;5.93;;;;;;;16.35;60.11;98128.41;4439786;32;20093;-80
2023/05/06 02:12:58;;;;;;;15.18;6.70;;;;;;;16.29;60.25;98126.22;4439297;32;20376;-79
2023/05/06 02:15:26;;;;;;;12.43;6.18;;;;;;;16.39;60.98;98122.09;4439658;32;20090;-80
2023/05/06 02:17:52;;;;;;;15.35;6.97;;;;;;;16.71;59.82;98126.06;4439682;32;20130;-80
2023/05/06 02:20:19;;;;;;;11.73;6.10;;;;;;;16.94;58.68;98123.69;4439307;32;20081;-79
2023/05/06 02:22:46;;;;;;;13.23;6.72;;;;;;;17.16;57.06;98123.91;4439539;32;20089;-80
2023/05/06 02:25:13;;;;;;;16.62;7.70;;;;;;;16.68;59.16;98118.41;4439529;32;20150;-79
2023/05/06 02:27:40;;;;;;;18.05;8.82;;;;;;;16.83;58.95;98121.78;4439067;32;20116;-79
2023/05/06 02:30:07;;;;;;;16.58;8.45;;;;;;;16.69;60.35;98124.47;4439425;32;20097;-79
2023/05/06 02:32:34;;;;;;;16.37;7.22;;;;;;;15.97;62.45;98123.06;4439332;32;20159;-79
2023/05/06 02:35:02;;;;;;;16.48;8.25;;;;;;;15.79;63.29;98120.69;4439139;32;20089;-79
2023/05/06 02:37:29;;;;;;;16.80;8.93;;;;;;;16.74;59.72;98123.25;4439363;32;20104;-79
2023/05/06 02:39:55;;;;;;;19.48;9.30;;;;;;;16.17;61.55;98128.69;4439114;32;20101;-80
2023/05/06 02:42:22;;;;;;;18.42;9.25;;;;;;;16.19;61.39;98125.97;4439069;32;20105;-79
2023/05/06 02:44:49;;;;;;;19.70;8.95;;;;;;;16.99;58.58;98127.63;4439127;32;20546;-80
2023/05/06 02:47:16;;;;;;;16.95;8.57;;;;;;;16.87;58.73;98120.63;4440285;32;20085;-80
2023/05/06 02:49:43;;;;;;;19.33;9.15;;;;;;;16.63;59.99;98119.66;4441002;32;20104;-80
2023/05/06 02:52:10;;;;;;;16.95;8.90;;;;;;;16.67;59.85;98121.94;4441490;32;20124;-80
2023/05/06 02:54:37;;;;;;;16.50;8.45;;;;;;;17.12;56.69;98121.59;4441160;32;20106;-79
2023/05/06 02:57:04;;;;;;;16.27;7.80;;;;;;;17.05;56.54;98127.22;4441472;32;20081;-80
2023/05/06 02:59:30;;;;;;;14.57;7.45;;;;;;;17.02;56.71;98126.63;4441249;32;20418;-80
2023/05/06 03:01:57;;;;;;;14.70;7.62;;;;;;;16.77;56.72;98124.78;4441080;32;20105;-79
2023/05/06 03:04:24;;;;;;;18.33;8.45;;;;;;;16.20;58.31;98133.69;4441396;32;20081;-80
2023/05/06 03:06:51;;;;;;;14.60;7.37;;;;;;;16.29;58.11;98121.84;4441415;32;20105;-80
2023/05/06 03:09:18;;;;;;;16.42;8.27;;;;;;;16.38;57.86;98126.47;4440855;32;20180;-80
2023/05/06 03:11:45;;;;;;;16.98;7.85;;;;;;;16.10;58.96;98123.97;4441408;32;20097;-79
2023/05/06 03:14:12;;;;;;;15.35;8.23;;;;;;;16.22;59.41;98130.16;4441367;32;20077;-80
2023/05/06 03:16:39;;;;;;;15.50;8.15;;;;;;;16.38;59.25;98136.88;4440912;32;20116;-79
2023/05/06 03:19:05;;;;;;;15.43;7.53;;;;;;;16.49;59.49;98128.38;4441207;32;20707;-79
2023/05/06 03:21:32;;;;;;;15.73;7.87;;;;;;;16.54;59.93;98131.50;4441253;32;20120;-79
2023/05/06 03:23:59;;;;;;;14.75;7.30;;;;;;;16.82;58.46;98137.53;4440810;32;20110;-79
2023/05/06 03:26:26;;;;;;;14.77;6.07;;;;;;;16.22;59.88;98140.56;4441230;32;20428;-80
2023/05/06 03:28:53;;;;;;;14.00;6.65;;;;;;;16.32;59.43;98141.63;4441094;32;20426;-80
2023/05/06 03:31:20;;;;;;;13.68;6.62;;;;;;;16.44;57.44;98149.50;4440909;32;20099;-79
2023/05/06 03:33:47;;;;;;;15.27;6.78;;;;;;;16.73;55.73;98152.00;4441177;32;20154;-80
2023/05/06 03:36:14;;;;;;;11.52;5.65;;;;;;;16.24;58.02;98152.53;4441188;32;20073;-80
2023/05/06 03:38:41;;;;;;;16.48;6.57;;;;;;;15.70;62.14;98155.06;4440694;32;20101;-80
2023/05/06 03:41:08;;;;;;;14.13;6.62;;;;;;;16.16;61.20;98152.19;4441144;32;20113;-80
2023/05/06 03:43:35;;;;;;;14.35;6.60;;;;;;;15.48;64.97;98144.28;4440817;32;20104;-80
2023/05/06 03:46:02;;;;;;;15.25;7.20;;;;;;;16.24;63.03;98146.50;4440817;32;20447;-79
2023/05/06 03:48:30;;;;;;;13.05;6.60;;;;;;;16.18;63.06;98142.53;4441156;32;20085;-80
2023/05/06 03:50:57;;;;;;;14.73;7.55;;;;;;;16.60;61.72;98145.91;4440775;32;20108;-79
2023/05/06 03:53:24;;;;;;;14.57;7.45;;;;;;;17.25;59.20;98151.94;4440879;32;20093;-79
2023/05/06 03:55:51;;;;;;;14.63;7.12;;;;;;;17.02;60.20;98155.28;4441027;32;20077;-80
2023/05/06 03:58:18;;;;;;;14.20;7.28;;;;;;;16.46;62.59;98145.00;4439465;32;20123;-80
2023/05/06 04:00:45;;;;;;;16.35;7.90;;;;;;;16.30;63.38;98148.72;4440948;32;20108;-80
2023/05/06 04:03:12;;;;;;;15.45;7.05;;;;;;;17.37;59.35;98152.06;4440939;32;20077;-80
2023/05/06 04:05:39;;;;;;;13.75;7.22;;;;;;;17.53;57.92;98152.66;4440617;32;20108;-80
2023/05/06 04:08:06;;;;;;;13.07;6.50;;;;;;;17.02;59.95;98153.50;4441024;32;20107;-80
2023/05/06 04:10:38;;;;;;;15.57;7.62;;;;;;;17.02;59.54;98147.47;4440932;32;20491;-80
2023/05/06 04:13:05;;;;;;;15.90;8.52;;;;;;;16.96;60.29;98143.47;4440542;32;20377;-80
2023/05/06 04:15:33;;;;;;;17.90;8.60;;;;;;;17.14;59.54;98138.81;4440821;32;20089;-80
2023/05/06 04:18:00;;;;;;;18.08;9.82;;;;;;;17.90;56.94;98146.56;4440811;32;20093;-80
2023/05/06 04:20:27;;;;;;;18.10;8.73;;;;;;;17.89;57.54;98150.13;4440460;32;20082;-80
2023/05/06 04:22:54;;;;;;;16.80;8.82;;;;;;;17.43;59.88;98151.63;4440766;32;20154;-80
2023/05/06 04:25:21;;;;;;;16.17;8.98;;;;;;;18.05;58.45;98151.63;4440853;32;20422;-80
2023/05/06 04:27:47;;;;;;;17.60;9.63;;;;;;;18.29;56.96;98149.03;4440541;32;20089;-80
2023/05/06 04:30:14;;;;;;;19.30;10.18;;;;;;;17.95;58.35;98154.06;4440905;32;20085;-80
2023/05/06 04:32:42;;;;;;;17.87;9.35;;;;;;;18.12;58.77;98153.69;4440709;32;20089;-80
2023/05/06 04:35:09;;;;;;;17.85;8.05;;;;;;;18.56;57.74;98154.88;4440497;32;20103;-80
2023/05/06 04:37:36;;;;;;;15.52;7.60;;;;;;;19.01;56.30;98155.03;4440999;32;20097;-80
2023/05/06 04:40:04;;;;;;;11.00;5.82;;;;;;;19.48;54.84;98153.22;4440263;32;20436;-80
2023/05/06 04:42:32;;;;;;;11.32;5.68;;;;;;;19.90;54.67;98147.25;4440603;32;20108;-81
2023/05/06 04:44:59;;;;;;;11.40;5.35;;;;;;;20.50;51.30;98156.41;4440668;32;20119;-80
2023/05/06 04:47:26;;;;;;;11.00;5.68;;;;;;;21.48;49.04;98153.53;4440350;32;20451;-80
2023/05/06 04:49:53;;;;;;;15.00;5.75;;;;;;;22.37;45.85;98162.38;4440760;32;20106;-80
2023/05/06 04:52:20;;;;;;;13.80;6.00;;;;;;;22.81;45.12;98158.34;4440627;32;20104;-80
2023/05/06 04:54:47;;;;;;;11.00;4.75;;;;;;;23.25;43.99;98163.16;4440256;32;20082;-80
2023/05/06 04:57:14;;;;;;;10.63;5.30;;;;;;;23.34;42.72;98149.16;4440608;32;20111;-80
2023/05/06 04:59:41;;;;;;;10.15;4.87;;;;;;;23.27;42.89;98158.59;4440557;32;20082;-80
2023/05/06 05:02:08;;;;;;;9.70;4.82;;;;;;;23.49;41.92;98152.16;4440395;32;20085;-80
2023/05/06 05:04:35;;;;;;;10.52;5.28;;;;;;;23.40;42.01;98153.03;4440584;32;20077;-80
2023/05/06 05:07:02;;;;;;;10.65;5.25;;;;;;;23.19;42.45;98159.31;4440573;32;20158;-80
2023/05/06 05:09:29;;;;;;;11.88;5.55;;;;;;;22.81;43.53;98152.28;4425674;32;20124;-80
2023/05/06 05:11:56;;;;;;;13.57;5.47;;;;;;;22.64;44.17;98152.97;4440468;32;20433;-80
2023/05/06 05:14:22;;;;;;;10.57;5.28;;;;;;;22.39;45.00;98147.28;4440566;32;20100;-80
2023/05/06 05:16:49;;;;;;;11.20;5.40;;;;;;;22.11;46.21;98148.06;4426228;32;20167;-80
2023/05/06 05:19:16;;;;;;;11.98;5.65;;;;;;;21.95;46.77;98146.75;4440472;32;20089;-80
2023/05/06 05:21:43;;;;;;;12.57;5.85;;;;;;;21.70;47.41;98146.41;4440281;32;20081;-80
2023/05/06 05:24:10;;;;;;;11.55;5.57;;;;;;;22.11;46.67;98153.31;4440070;32;20108;-80
2023/05/06 05:26:37;;;;;;;10.48;5.30;;;;;;;22.72;44.80;98151.31;4440333;32;20155;-80
2023/05/06 05:29:04;;;;;;;12.18;6.03;;;;;;;22.69;45.53;98156.03;4439967;32;20158;-80
2023/05/06 05:31:31;;;;;;;11.35;4.95;;;;;;;22.63;45.97;98153.94;4440367;32;20099;-80
2023/05/06 05:33:58;;;;;;;11.18;5.28;;;;;;;22.51;47.11;98158.50;4440269;32;20081;-80
2023/05/06 05:36:25;;;;;;;12.13;6.00;;;;;;;22.20;47.86;98157.78;4439972;32;20097;-80
2023/05/06 05:38:51;;;;;;;13.20;5.95;;;;;;;22.39;47.19;98160.44;4440207;32;20116;-80
2023/05/06 05:41:18;;;;;;;12.48;6.45;;;;;;;22.01;48.65;98155.06;4440022;32;20081;-81
2023/05/06 05:43:45;;;;;;;13.20;6.43;;;;;;;22.63;47.05;98153.94;4439395;32;20136;-80
2023/05/06 05:46:13;;;;;;;13.20;7.20;;;;;;;22.76;46.99;98151.88;4440110;32;20158;-81
2023/05/06 05:48:40;;;;;;;16.05;8.18;;;;;;;23.34;46.22;98149.97;4440051;32;20369;-80
2023/05/06 05:51:07;;;;;;;18.08;10.30;;;;;;;24.04;43.47;98149.59;4439647;32;20089;-80
2023/05/06 05:53:33;;;;;;;17.67;10.05;;;;;;;24.45;41.09;98150.84;4439959;32;20073;-80
2023/05/06 05:56:00;;;;;;;16.52;9.25;;;;;;;25.25;40.69;98151.69;4440115;32;20096;-81
2023/05/06 05:58:27;;;;;;;20.05;9.60;;;;;;;26.24;38.25;98151.97;4439539;32;20101;-81
2023/05/06 06:00:54;;;;;;;16.90;9.52;;;;;;;26.87;36.58;98150.59;4439887;32;20093;-81
2023/05/06 06:03:21;;;;;;;15.43;9.43;;;;;;;27.00;35.71;98157.03;4439766;32;20162;-81
2023/05/06 06:05:48;;;;;;;15.60;9.23;;;;;;;26.81;37.28;98157.41;4439581;32;20138;-81
2023/05/06 06:08:18;;;;;;;18.08;9.68;;;;;;;26.99;38.34;98160.69;4439823;32;20124;-81
2023/05/06 06:10:46;;;;;;;16.17;9.02;;;;;;;27.42;36.68;98147.25;4439743;32;20532;-81
2023/05/06 06:13:13;;;;;;;16.17;8.50;;;;;;;28.44;35.18;98155.13;4439306;32;20145;-81
2023/05/06 06:15:40;;;;;;;15.90;9.07;;;;;;;28.65;34.77;98154.47;4439709;32;20425;-81
2023/05/06 06:18:07;;;;;;;15.48;8.43;;;;;;;29.22;34.28;98156.66;4439386;32;20554;-81
2023/05/06 06:20:36;;;;;;;16.50;8.48;;;;;;;28.90;35.86;98156.97;4439512;32;20121;-81
2023/05/06 06:23:03;;;;;;;13.75;8.07;;;;;;;28.66;36.75;98165.94;4441107;32;20454;-81
2023/05/06 06:25:30;;;;;;;14.05;8.05;;;;;;;28.23;37.82;98162.84;4441331;32;20127;-81
2023/05/06 06:27:57;;;;;;;14.63;7.93;;;;;;;28.35;36.77;98173.94;4427770;32;20101;-81
2023/05/06 06:30:24;;;;;;;14.32;7.28;;;;;;;28.44;37.36;98170.22;4441639;32;20085;-81
2023/05/06 06:32:52;;;;;;;13.82;8.00;;;;;;;29.18;35.67;98174.00;4441158;32;20069;-81
2023/05/06 06:35:19;;;;;;;14.07;7.82;;;;;;;29.40;35.46;98174.94;4427776;32;20150;-81
2023/05/06 06:37:46;;;;;;;15.57;8.25;;;;;;;29.54;34.66;98168.00;4427697;32;20155;-81
2023/05/06 06:40:13;;;;;;;15.52;8.52;;;;;;;29.45;34.85;98179.69;4441192;32;20077;-81
2023/05/06 06:42:40;;;;;;;14.95;8.27;;;;;;;28.81;35.68;98178.25;4427646;32;20690;-81
2023/05/06 06:45:08;;;;;;;16.17;8.45;;;;;;;27.01;38.69;98169.31;4441384;32;20166;-81
2023/05/06 06:47:35;;;;;;;16.40;8.88;;;;;;;28.27;37.47;98165.97;4441096;32;20440;-81
2023/05/06 06:50:02;;;;;;;14.95;7.95;;;;;;;27.60;38.44;98167.22;4441557;32;20419;-81
2023/05/06 06:52:29;;;;;;;13.65;7.15;;;;;;;28.45;35.96;98162.09;4441430;32;20124;-81
2023/05/06 06:54:56;;;;;;;12.32;6.37;;;;;;;29.13;30.81;98164.91;4441140;32;20111;-81
2023/05/06 06:57:23;;;;;;;14.15;6.47;;;;;;;28.81;31.01;98172.94;4441457;32;20102;-82
2023/05/06 06:59:52;;;;;;;13.65;6.65;;;;;;;29.18;30.66;98175.81;4441361;32;20089;-81
2023/05/06 07:02:22;;;;;;;13.65;6.40;;;;;;;29.55;29.29;98164.34;4441117;32;20110;-81
2023/05/06 07:04:49;;;;;;;13.20;6.60;;;;;;;29.60;29.34;98168.09;4441423;32;20089;-81
2023/05/06 07:07:16;;;;;;;12.82;5.70;;;;;;;30.06;28.60;98162.59;4441144;32;20121;-81
2023/05/06 07:09:43;;;;;;;12.80;6.18;;;;;;;29.76;31.31;98168.91;4441435;32;20112;-81
2023/05/06 07:12:10;;;;;;;11.85;6.10;;;;;;;29.31;29.58;98160.06;4433670;32;240778;-82
2023/05/06 07:14:37;;;;;;;16.00;6.22;;;;;;;29.38;29.93;98169.81;4441004;32;20158;-81
2023/05/06 07:17:04;;;;;;;12.43;5.68;;;;;;;28.77;30.33;98162.84;4441286;32;20093;-81
2023/05/06 07:19:31;;;;;;;10.43;5.40;;;;;;;28.29;30.94;98164.84;4441287;32;20151;-81
2023/05/06 07:21:58;;;;;;;13.32;5.82;;;;;;;28.08;33.16;98164.59;4440841;32;20081;-81
2023/05/06 07:24:25;;;;;;;11.40;6.07;;;;;;;27.96;33.31;98167.62;4441207;32;20112;-81
2023/05/06 07:26:51;;;;;;;12.30;6.00;;;;;;;28.07;34.10;98169.06;4441275;32;20124;-80
2023/05/06 07:29:18;;;;;;;12.00;5.62;;;;;;;28.58;34.13;98168.62;4440778;32;20147;-80
2023/05/06 07:31:45;;;;;;;11.48;5.50;;;;;;;28.38;31.98;98165.59;4441218;32;20138;-80
2023/05/06 07:34:12;;;;;;;10.98;6.12;;;;;;;28.06;33.92;98170.06;4440966;32;20116;-80
2023/05/06 07:36:39;;;;;;;12.15;5.50;;;;;;;27.00;35.06;98177.38;4440819;32;20085;-80
2023/05/06 07:39:06;;;;;;;10.98;5.12;;;;;;;27.44;34.44;98175.25;4441171;32;20097;-80
2023/05/06 07:41:33;;;;;;;13.13;5.10;;;;;;;27.79;34.70;98174.00;4441005;32;20085;-79
2023/05/06 07:44:00;;;;;;;11.85;4.72;;;;;;;27.30;35.72;98174.09;4440436;32;20534;-80
2023/05/06 07:46:27;;;;;;;9.57;4.20;;;;;;;28.07;33.70;98168.22;4441141;32;20089;-80
2023/05/06 07:48:54;;;;;;;10.00;4.55;;;;;;;29.04;33.31;98172.13;4441202;32;20425;-80
2023/05/06 07:51:21;;;;;;;10.23;4.70;;;;;;;29.06;32.16;98175.44;4426949;32;20073;-81
2023/05/06 07:53:48;;;;;;;9.20;4.35;;;;;;;29.23;32.01;98174.25;4440998;32;20097;-81
2023/05/06 07:56:17;;;;;;;8.90;4.30;;;;;;;29.35;30.97;98182.66;4440853;32;20097;-79
2023/05/06 07:58:43;;;;;;;8.18;3.95;;;;;;;29.96;30.40;98172.66;4441086;32;20163;-80
2023/05/06 08:01:10;;;;;;;8.23;4.10;;;;;;;31.00;31.36;98174.03;4440826;32;20108;-80
2023/05/06 08:03:37;;;;;;;8.95;4.35;;;;;;;31.21;29.07;98175.88;4426711;32;20123;-81
2023/05/06 08:06:05;;;;;;;8.48;4.57;;;;;;;30.17;31.01;98169.25;4441028;32;20142;-80
2023/05/06 08:08:32;;;;;;;8.50;4.30;;;;;;;30.48;30.01;98175.16;4427284;32;20090;-80
2023/05/06 08:10:59;;;;;;;10.32;4.43;;;;;;;30.15;29.34;98166.78;4440659;32;20146;-81
2023/05/06 08:13:27;;;;;;;10.75;4.55;;;;;;;28.51;33.17;98166.69;4440866;32;20101;-81
2023/05/06 08:15:54;;;;;;;13.75;5.20;;;;;;;28.57;33.42;98164.31;4440905;32;20097;-80
2023/05/06 08:18:21;;;;;;;8.50;4.25;;;;;;;28.42;34.10;98167.75;4440486;32;20113;-80
2023/05/06 08:20:50;;;;;;;8.88;4.50;;;;;;;28.47;33.53;98164.56;4440906;32;20095;-80
2023/05/06 08:23:16;;;;;;;9.23;4.07;;;;;;;28.21;34.08;98160.38;4440792;32;20105;-80
2023/05/06 08:25:43;;;;;;;7.50;4.00;;;;;;;29.56;32.59;98169.50;4440514;32;20112;-80
2023/05/06 08:28:10;;;;;;;7.85;3.97;;;;;;;29.26;32.12;98183.72;4440923;32;20100;-80
2023/05/06 08:30:37;;;;;;;7.47;3.87;;;;;;;29.24;33.92;98177.75;4440900;32;20077;-80
2023/05/06 08:33:04;;;;;;;9.00;4.47;;;;;;;30.61;31.45;98179.78;4440354;32;20158;-80
2023/05/06 08:35:31;;;;;;;7.72;3.90;;;;;;;30.47;30.50;98178.00;4440827;32;20526;-80
2023/05/06 08:37:58;;;;;;;10.55;4.40;;;;;;;30.76;32.19;98182.44;4440652;32;20086;-80
2023/05/06 08:40:26;;;;;;;9.70;3.95;;;;;;;30.35;31.20;98183.00;4440463;32;20506;-80
2023/05/06 08:42:54;;;;;;;8.48;4.18;;;;;;;30.20;29.79;98175.06;4440445;32;20093;-79
2023/05/06 08:45:22;;;;;;;11.10;4.50;;;;;;;30.20;31.55;98179.53;4439758;32;20116;-79
2023/05/06 08:47:49;;;;;;;8.88;4.80;;;;;;;29.36;30.79;98182.47;4440757;32;20493;-80
2023/05/06 08:50:16;;;;;;;7.15;3.72;;;;;;;29.74;30.20;98186.91;4440697;32;20092;-80
2023/05/06 08:52:44;;;;;;;7.37;3.70;;;;;;;30.46;29.31;98176.34;4440282;32;20724;-80
2023/05/06 08:55:11;;;;;;;8.27;3.67;;;;;;;29.19;31.37;98188.09;4440600;32;20388;-80
2023/05/06 08:57:39;;;;;;;8.23;3.55;;;;;;;29.72;31.41;98186.25;4440614;32;20427;-80
2023/05/06 09:00:09;;;;;;;9.25;4.07;;;;;;;29.39;31.16;98179.44;4426349;32;20420;-80
2023/05/06 09:02:37;;;;;;;6.47;3.33;;;;;;;29.53;32.16;98187.63;4440553;32;20097;-80
2023/05/06 09:05:08;;;;;;;7.75;3.40;;;;;;;28.65;31.10;98173.06;4440706;32;20153;-80
2023/05/06 09:07:36;;;;;;;8.25;3.37;;;;;;;29.29;31.02;98178.87;4440234;32;20167;-80
2023/05/06 09:10:11;;;;;;;8.35;3.70;;;;;;;29.54;31.84;98178.63;4440549;32;20391;-80
2023/05/06 09:12:38;;;;;;;6.15;3.10;;;;;;;29.07;31.81;98171.78;4440802;32;20100;-80
2023/05/06 09:15:06;;;;;;;8.13;3.40;;;;;;;29.07;31.79;98174.44;4440208;32;20440;-80
2023/05/06 09:17:33;;;;;;;7.68;3.37;;;;;;;29.34;30.35;98168.50;4440442;32;20120;-79
2023/05/06 09:20:00;;;;;;;6.50;3.37;;;;;;;29.04;31.45;98170.31;4440433;32;20099;-81
2023/05/06 09:22:28;;;;;;;9.77;3.45;;;;;;;28.88;32.47;98174.88;4439978;32;20146;-82
2023/05/06 09:24:56;;;;;;;6.55;3.25;;;;;;;28.59;32.60;98164.97;4440431;32;20131;-81
2023/05/06 09:27:25;;;;;;;7.18;3.55;;;;;;;28.55;32.82;98171.66;4440361;32;20159;-81
2023/05/06 09:30:08;;;;;;;8.52;3.25;;;;;;;28.32;33.10;98171.63;4426171;32;20078;-81
2023/05/06 09:32:35;;;;;;;7.62;3.45;;;;;;;28.91;32.20;98179.84;4440336;32;20101;-81
2023/05/06 09:35:07;;;;;;;7.80;3.20;;;;;;;29.12;31.46;98169.38;4440073;32;20101;-81
2023/05/06 09:37:34;;;;;;;6.15;3.05;;;;;;;29.23;30.66;98173.44;4440291;32;20100;-82
2023/05/06 09:40:01;;;;;;;9.90;3.12;;;;;;;28.79;31.41;98163.50;4440168;32;20085;-81
2023/05/06 09:42:29;;;;;;;7.18;3.85;;;;;;;28.70;31.59;98172.53;4439649;32;20361;-81
2023/05/06 09:44:58;;;;;;;8.05;3.20;;;;;;;28.71;31.46;98169.72;4440100;32;20093;-82
2023/05/06 09:47:31;;;;;;;7.72;3.92;;;;;;;28.70;31.05;98161.91;4440243;32;20138;-81
2023/05/06 09:50:00;;;;;;;6.37;3.47;;;;;;;28.60;31.21;98156.00;4439691;32;20436;-81
2023/05/06 09:52:28;;;;;;;9.20;3.80;;;;;;;29.06;32.35;98157.66;4440125;32;20161;-81
2023/05/06 09:54:56;;;;;;;8.57;3.60;;;;;;;28.86;31.76;98155.66;4439994;32;20097;-81
2023/05/06 09:57:23;;;;;;;7.53;4.00;;;;;;;28.39;31.79;98154.84;4427485;32;20793;-81
2023/05/06 09:59:53;;;;;;;11.02;3.53;;;;;;;28.61;31.41;98153.19;4441911;32;20142;-81
2023/05/06 10:02:22;;;;;;;8.15;3.83;;;;;;;28.97;32.56;98152.59;4441805;32;20097;-81
2023/05/06 10:04:49;;;;;;;8.20;3.75;;;;;;;29.47;32.19;98156.44;4427726;32;20109;-81
2023/05/06 10:07:21;;;;;;;7.25;3.50;;;;;;;29.34;30.17;98152.56;4441785;32;20558;-81
2023/05/06 10:09:50;;;;;;;7.40;3.30;;;;;;;28.86;30.81;98155.66;4441426;32;20085;-81
2023/05/06 10:12:18;;;;;;;6.97;3.35;;;;;;;28.37;31.97;98150.69;4428017;32;20471;-81
2023/05/06 10:14:45;;;;;;;9.50;3.80;;;;;;;29.19;30.04;98153.56;4427895;32;20110;-81
2023/05/06 10:17:12;;;;;;;6.78;3.55;;;;;;;29.01;30.69;98143.25;4441367;32;20388;-81
2023/05/06 10:19:43;;;;;;;8.70;3.40;;;;;;;28.58;31.63;98137.59;4441674;32;20107;-81
2023/05/06 10:22:16;;;;;;;7.28;3.47;;;;;;;28.26;30.86;98141.28;4427714;32;20101;-81
2023/05/06 10:25:04;;;;;;;9.38;3.50;;;;;;;28.49;30.91;98139.47;4427688;32;20448;-81
2023/05/06 10:27:34;;;;;;;7.05;3.22;;;;;;;28.43;31.87;98137.56;4427723;32;20093;-81
2023/05/06 10:30:01;;;;;;;7.07;3.17;;;;;;;27.71;31.09;98141.37;4441738;32;20073;-81
2023/05/06 10:32:31;;;;;;;8.10;3.53;;;;;;;27.96;31.37;98135.78;4441213;32;20089;-81
2023/05/06 10:35:05;;;;;;;8.10;3.60;;;;;;;27.45;34.23;98142.44;4441679;32;20106;-81
2023/05/06 10:37:32;;;;;;;9.63;3.78;;;;;;;28.10;32.22;98126.28;4427892;32;20089;-81
2023/05/06 10:39:59;;;;;;;6.75;3.62;;;;;;;28.13;32.14;98131.25;4441195;32;20081;-81
2023/05/06 10:42:29;;;;;;;8.10;3.55;;;;;;;27.73;31.02;98128.78;4427588;32;20115;-81
2023/05/06 10:45:02;;;;;;;7.80;3.40;;;;;;;27.27;33.24;98137.34;4427515;32;20128;-81
2023/05/06 10:47:48;;;;;;;7.97;3.75;;;;;;;27.29;32.52;98130.06;4441597;32;20105;-81
2023/05/06 10:50:21;;;;;;;7.25;3.37;;;;;;;27.53;32.91;98120.38;4441561;32;20095;-81
2023/05/06 10:52:51;;;;;;;8.75;3.60;;;;;;;27.99;32.86;98121.38;4441137;32;20097;-81
2023/05/06 10:55:26;;;;;;;7.85;3.92;;;;;;;28.16;33.23;98124.75;4441530;32;20513;-81
2023/05/06 10:58:02;;;;;;;7.43;3.83;;;;;;;28.16;34.35;98116.78;4441457;32;20450;-81
2023/05/06 11:00:33;;;;;;;7.22;3.58;;;;;;;28.08;35.28;98124.81;4441327;32;20077;-81
2023/05/06 11:03:02;;;;;;;7.47;3.50;;;;;;;27.95;34.16;98120.06;4441392;32;20404;-81
2023/05/06 11:05:29;;;;;;;6.60;3.42;;;;;;;28.18;32.84;98123.59;4441414;32;20096;-81
2023/05/06 11:08:09;;;;;;;7.20;3.62;;;;;;;27.65;33.98;98121.72;4440632;32;20368;-81
2023/05/06 11:10:36;;;;;;;11.05;4.15;;;;;;;27.05;34.96;98125.63;4441502;32;20147;-81
2023/05/06 11:13:26;;;;;;;8.50;4.10;;;;;;;27.54;34.56;98120.22;4441024;32;20105;-81
2023/05/06 11:15:54;;;;;;;11.25;4.03;;;;;;;27.74;36.03;98123.31;4441452;32;20150;-81
2023/05/06 11:18:25;;;;;;;11.30;4.37;;;;;;;27.27;35.46;98121.44;4441297;32;20093;-81
2023/05/06 11:21:01;;;;;;;9.68;4.00;;;;;;;27.02;35.58;98122.50;4440941;32;20085;-81
2023/05/06 11:23:41;;;;;;;10.60;4.00;;;;;;;26.81;35.16;98128.28;4441271;32;20123;-81
2023/05/06 11:26:09;;;;;;;7.22;3.50;;;;;;;26.96;35.51;98131.06;4441310;32;20474;-81
2023/05/06 11:28:37;;;;;;;9.23;4.18;;;;;;;27.03;36.00;98126.81;4440805;32;20153;-81
2023/05/06 11:31:04;;;;;;;12.40;4.35;;;;;;;27.26;36.17;98132.22;4441280;32;20137;-81